Portada
METAR-TAF:

METAR-TAF

Aeroports :

Mwanza, Tanzània

latitud: 02-28S, longitud: 032-55E, altitud: 1139 m

Observació

L'informe es va fer fa 1 hora i 17 minuts, a les 15:00 UTC
Vent 7 kt del Nord/Nord-Est
Temperatura 28°C
Humitat 40%
Pressió 1015 hPa
Visibilitat 10 km o més
Escasses núvols a una alçada de 2800 ft

METAR: HTMW 051500Z 02007KT 9999 FEW028 28/13 Q1015 NOSIG

Hora: 19:17 (16:17 UTC)

Pronòstic

L'informe es va fer fa 5 hores i 17 minuts, a les 11:00 UTC
Pronòstic vàlid del 05 a les 12 UTC al 06 a les 12 UTC
Vent 10 kt del Nord/Nord-Oest
Visibilitat 10 km o més
Escasses núvols a una alçada de 2700 ft
Núvols disperses a una alçada de 12000 ft
Evolucionant progressivament
l' 05 a les 15 UTC al 05 a les 17 UTC
Escasses núvols a una alçada de 2300 ft
Evolucionant progressivament
l' 05 a les 22 UTC al 06 a les 02 UTC
Vent 10 kt del Est/Sud-Est

TAF: HTMW 051100Z 0512/0612 33010KT 9999 FEW027 SCT120 BECMG 0515/0517 FEW023 BECMG 0522/0602 12010KT

Observacions i pronòstics meteorològics de més de 4000 aeroports (METAR i TAF).

Les estacions disponibles són els punts grocs i vermells al mapa.

Posi el ratolí al punt desitjat per veure el nom de l'estació.

Feu clic per veure les observacions i els pronòstics meteorològics.

Per canviar el mapa: feu clic els botons verds amb una creu de color negre per apropar; al botó verd amb un guió per allunyar la imatge; o en les fletxes verdes per a mapes adjacents.


METAR-TAF: